Time;durP1;ratioP1;P1;durP2;ratioP2;P2;SDS_P1;SDS_P2;PMS_P1;PMS_P2;Temp;Humidity;BMP_temperature;BMP_pressure;BME280_temperature;BME280_humidity;BME280_pressure;Samples;Min_cycle;Max_cycle;Signal;HPM_P1;HPM_P2
2022/07/10 00:00:31;;;;;;;13.60;9.57;;;;;;;15.69;100.00;100531.19;12212496;19;20015;-78
2022/07/10 00:04:33;;;;;;;10.68;8.55;;;;;;;15.63;100.00;100523.88;12192412;19;20007;-77
2022/07/10 00:08:35;;;;;;;9.93;7.70;;;;;;;15.61;100.00;100520.53;12214276;19;20073;-79
2022/07/10 00:12:37;;;;;;;12.50;7.53;;;;;;;15.62;100.00;100510.28;12209300;19;20050;-78
2022/07/10 00:16:39;;;;;;;8.90;6.35;;;;;;;15.59;100.00;100510.81;12185616;19;20019;-78
2022/07/10 00:20:40;;;;;;;9.55;6.40;;;;;;;15.56;100.00;100506.63;12206816;19;20010;-78
2022/07/10 00:24:42;;;;;;;8.40;5.50;;;;;;;15.54;100.00;100519.09;12206855;19;20113;-79
2022/07/10 00:28:44;;;;;;;10.77;4.55;;;;;;;15.50;100.00;100516.84;12201547;19;20014;-79
2022/07/10 00:32:45;;;;;;;8.43;4.28;;;;;;;15.47;100.00;100517.38;12239565;19;20461;-79
2022/07/10 00:36:47;;;;;;;6.22;4.32;;;;;;;15.44;100.00;100519.84;12208453;19;20086;-79
2022/07/10 00:40:50;;;;;;;8.70;3.92;;;;;;;15.34;100.00;100515.03;12174801;19;20078;-79
2022/07/10 00:44:51;;;;;;;6.43;3.70;;;;;;;15.25;100.00;100525.78;12207383;19;20011;-78
2022/07/10 00:48:54;;;;;;;11.15;4.20;;;;;;;15.21;100.00;100529.38;12202169;19;20082;-78
2022/07/10 00:52:55;;;;;;;6.68;3.75;;;;;;;15.18;100.00;100527.13;12176873;19;20010;-77
2022/07/10 00:56:57;;;;;;;5.72;3.47;;;;;;;15.13;100.00;100518.72;12195601;19;20011;-77
2022/07/10 01:01:01;;;;;;;8.93;4.13;;;;;;;15.11;100.00;100538.44;12197418;19;20359;-78
2022/07/10 01:05:04;;;;;;;10.05;3.03;;;;;;;15.07;100.00;100528.09;12179231;19;20292;-77
2022/07/10 01:09:06;;;;;;;6.80;2.95;;;;;;;15.04;100.00;100541.41;12202994;19;20070;-78
2022/07/10 01:13:08;;;;;;;9.17;2.93;;;;;;;15.07;100.00;100533.66;12196288;19;20033;-77
2022/07/10 01:17:10;;;;;;;6.32;3.28;;;;;;;15.03;100.00;100545.28;12179584;19;20268;-78
2022/07/10 01:21:26;;;;;;;4.30;3.10;;;;;;;14.99;100.00;100540.50;12198167;19;20037;-78
2022/07/10 01:25:28;;;;;;;7.90;3.30;;;;;;;14.92;100.00;100546.28;12176236;19;20007;-78
2022/07/10 01:29:30;;;;;;;6.40;3.03;;;;;;;14.83;100.00;100539.50;12193124;19;20109;-77
2022/07/10 01:33:31;;;;;;;3.85;3.00;;;;;;;14.79;100.00;100535.59;12200817;19;20337;-77
2022/07/10 01:37:33;;;;;;;6.38;3.40;;;;;;;14.75;100.00;100539.97;12176396;19;20095;-77
2022/07/10 01:41:35;;;;;;;6.33;3.00;;;;;;;14.74;100.00;100539.13;12195678;19;20011;-78
2022/07/10 01:45:36;;;;;;;8.10;3.60;;;;;;;14.72;100.00;100537.72;12186850;19;20020;-78
2022/07/10 01:49:38;;;;;;;5.43;3.88;;;;;;;14.67;100.00;100543.22;12180041;19;20015;-76
2022/07/10 01:53:40;;;;;;;6.32;3.90;;;;;;;14.69;100.00;100552.09;12195776;19;20062;-78
2022/07/10 01:57:42;;;;;;;5.63;3.67;;;;;;;14.79;100.00;100557.78;12201365;19;20117;-77
2022/07/10 02:01:43;;;;;;;6.75;4.05;;;;;;;14.80;100.00;100549.19;12183465;19;20531;-78
2022/07/10 02:05:45;;;;;;;10.60;3.95;;;;;;;14.88;100.00;100550.69;12208703;19;20007;-77
2022/07/10 02:09:47;;;;;;;9.45;3.55;;;;;;;14.96;100.00;100554.91;12213350;19;19999;-78
2022/07/10 02:13:49;;;;;;;6.40;3.20;;;;;;;15.01;100.00;100553.03;12181362;19;20086;-77
2022/07/10 02:17:51;;;;;;;6.70;3.25;;;;;;;15.10;100.00;100547.00;12211584;19;20082;-79
2022/07/10 02:21:52;;;;;;;6.77;3.43;;;;;;;15.14;100.00;100545.38;12211956;19;20010;-77
2022/07/10 02:25:54;;;;;;;7.03;3.58;;;;;;;15.18;100.00;100546.53;12185150;19;20098;-77
2022/07/10 02:29:56;;;;;;;6.82;3.63;;;;;;;15.20;100.00;100545.19;12201767;19;20014;-77
2022/07/10 02:33:57;;;;;;;8.73;3.38;;;;;;;15.18;100.00;100550.16;12196910;19;20030;-77
2022/07/10 02:37:59;;;;;;;6.65;3.35;;;;;;;15.14;100.00;100546.25;12179210;19;20002;-78
2022/07/10 02:42:01;;;;;;;6.78;3.75;;;;;;;15.08;100.00;100552.84;12200081;19;20011;-77
2022/07/10 02:46:03;;;;;;;11.38;3.80;;;;;;;14.99;100.00;100540.50;12203467;19;20590;-78
2022/07/10 02:50:05;;;;;;;7.65;3.75;;;;;;;14.88;100.00;100547.91;12189357;19;20010;-78
2022/07/10 02:54:07;;;;;;;8.00;4.03;;;;;;;14.78;100.00;100553.31;12205767;19;20015;-78
2022/07/10 02:58:09;;;;;;;5.85;3.50;;;;;;;14.71;100.00;100555.47;12192913;19;20003;-77
2022/07/10 03:02:11;;;;;;;6.13;3.45;;;;;;;14.65;100.00;100554.56;12181419;19;20532;-76
2022/07/10 03:06:12;;;;;;;5.32;3.38;;;;;;;14.57;100.00;100561.41;12202312;19;20510;-77
2022/07/10 03:10:14;;;;;;;6.65;3.50;;;;;;;14.51;100.00;100556.88;12211321;19;20787;-77
2022/07/10 03:14:16;;;;;;;10.18;3.40;;;;;;;14.51;100.00;100554.09;12173373;19;20491;-77
2022/07/10 03:18:18;;;;;;;5.63;3.25;;;;;;;14.52;100.00;100564.13;12199149;19;20073;-77
2022/07/10 03:22:20;;;;;;;6.75;3.05;;;;;;;14.47;100.00;100566.78;12203928;19;20003;-77
2022/07/10 03:26:22;;;;;;;6.85;2.97;;;;;;;14.38;100.00;100562.78;12183996;19;20066;-77
2022/07/10 03:30:24;;;;;;;6.70;3.40;;;;;;;14.31;100.00;100565.75;12205135;19;20030;-77
2022/07/10 03:34:25;;;;;;;9.00;3.40;;;;;;;14.25;100.00;100560.41;12209296;19;20086;-77
2022/07/10 03:38:27;;;;;;;5.85;3.28;;;;;;;14.20;100.00;100576.94;12183847;19;20010;-77
2022/07/10 03:42:29;;;;;;;12.20;3.88;;;;;;;14.18;100.00;100573.59;12205952;19;20597;-77
2022/07/10 03:46:30;;;;;;;6.20;3.40;;;;;;;14.17;100.00;100575.53;12180148;19;20709;-77
2022/07/10 03:50:33;;;;;;;6.53;3.38;;;;;;;14.17;100.00;100588.53;12197216;19;20010;-77
2022/07/10 03:54:34;;;;;;;5.82;3.10;;;;;;;14.16;100.00;100581.31;12205075;19;20011;-77
2022/07/10 03:58:36;;;;;;;7.60;3.65;;;;;;;14.18;100.00;100582.72;12178575;19;20007;-77
2022/07/10 04:02:39;;;;;;;7.23;3.90;;;;;;;14.24;100.00;100592.78;12196353;19;20018;-77
2022/07/10 04:06:41;;;;;;;7.20;3.35;;;;;;;14.32;100.00;100583.22;12202526;19;20011;-78
2022/07/10 04:10:42;;;;;;;9.45;3.33;;;;;;;14.34;100.00;100572.72;12177931;19;20435;-77
2022/07/10 04:14:44;;;;;;;5.55;3.42;;;;;;;14.34;100.00;100576.31;12193736;19;20385;-77
2022/07/10 04:18:46;;;;;;;7.22;3.80;;;;;;;14.29;100.00;100570.69;12195084;19;20003;-80
2022/07/10 04:22:47;;;;;;;6.30;3.47;;;;;;;14.35;100.00;100582.69;12172931;19;20067;-78
2022/07/10 04:26:49;;;;;;;5.72;3.28;;;;;;;14.41;100.00;100584.44;12205722;19;20459;-77
2022/07/10 04:30:51;;;;;;;6.15;3.13;;;;;;;14.41;100.00;100584.44;12188435;19;20088;-77
2022/07/10 04:34:53;;;;;;;6.72;2.88;;;;;;;14.45;100.00;100582.81;12175288;19;20018;-77
2022/07/10 04:38:54;;;;;;;6.47;3.23;;;;;;;14.51;100.00;100590.16;12203047;19;20804;-78
2022/07/10 04:42:56;;;;;;;8.27;2.20;;;;;;;14.56;100.00;100592.16;12199019;19;20438;-78
2022/07/10 04:46:58;;;;;;;8.57;2.60;;;;;;;14.72;100.00;100593.19;12173851;19;20011;-78
2022/07/10 04:51:00;;;;;;;3.92;1.88;;;;;;;14.83;100.00;100595.00;12198867;19;20074;-77
2022/07/10 04:55:02;;;;;;;7.25;2.05;;;;;;;14.86;98.86;100599.19;12202917;19;20126;-78
2022/07/10 04:59:03;;;;;;;6.05;2.50;;;;;;;14.95;98.36;100606.81;12166207;19;20010;-78
2022/07/10 05:03:05;;;;;;;6.15;2.08;;;;;;;15.05;97.48;100608.88;12196679;19;20546;-77
2022/07/10 05:07:07;;;;;;;8.30;2.05;;;;;;;15.17;94.53;100622.59;12198496;19;20014;-78
2022/07/10 05:11:09;;;;;;;6.47;1.92;;;;;;;15.33;92.60;100623.59;12174657;19;20021;-79
2022/07/10 05:15:10;;;;;;;7.65;1.85;;;;;;;15.41;91.55;100617.59;12195781;19;20082;-78
2022/07/10 05:19:12;;;;;;;4.97;1.58;;;;;;;15.35;90.70;100616.69;12206988;19;20094;-80
2022/07/10 05:23:14;;;;;;;8.27;2.28;;;;;;;15.30;87.47;100630.50;12195074;19;20018;-78
2022/07/10 05:27:18;;;;;;;6.80;1.70;;;;;;;15.39;87.07;100631.72;12196323;19;21927;-79
2022/07/10 05:31:20;;;;;;;4.70;2.45;;;;;;;15.43;85.70;100630.09;12189334;19;20023;-78
2022/07/10 05:35:22;;;;;;;6.78;1.90;;;;;;;15.38;84.17;100627.28;12191157;19;20042;-79
2022/07/10 05:39:26;;;;;;;5.07;1.73;;;;;;;15.32;84.17;100639.44;12213320;19;21037;-78
2022/07/10 05:43:28;;;;;;;4.95;2.03;;;;;;;15.24;83.49;100628.78;12200953;19;20013;-77
2022/07/10 05:47:29;;;;;;;5.75;1.70;;;;;;;15.21;82.52;100632.91;12202992;19;20006;-80
2022/07/10 05:51:31;;;;;;;6.05;1.85;;;;;;;15.03;81.79;100642.44;12206137;19;20101;-78
2022/07/10 05:55:42;;;;;;;4.63;1.45;;;;;;;14.93;82.43;100645.09;12187957;19;20010;-78
2022/07/10 05:59:44;;;;;;;6.22;1.50;;;;;;;14.92;82.00;100651.72;12210678;19;20031;-81
2022/07/10 06:03:46;;;;;;;2.50;1.30;;;;;;;15.03;80.32;100667.41;12207907;19;20716;-79
2022/07/10 06:07:47;;;;;;;5.95;1.88;;;;;;;15.23;80.34;100657.66;12187452;19;20342;-78
2022/07/10 06:11:49;;;;;;;2.72;1.23;;;;;;;15.51;79.25;100651.00;12217555;19;20078;-78
2022/07/10 06:15:51;;;;;;;3.75;1.13;;;;;;;15.68;75.88;100650.94;12207379;19;20078;-80
2022/07/10 06:19:53;;;;;;;2.50;1.00;;;;;;;15.80;73.45;100654.38;12181820;19;20477;-79
2022/07/10 06:23:55;;;;;;;3.80;1.00;;;;;;;16.00;71.50;100645.34;12211206;19;20428;-77
2022/07/10 06:27:56;;;;;;;6.13;1.15;;;;;;;16.07;72.20;100651.56;12208175;19;20091;-78
2022/07/10 06:31:58;;;;;;;4.15;1.05;;;;;;;16.01;69.94;100643.44;12178817;19;20013;-80
2022/07/10 06:35:59;;;;;;;4.22;1.02;;;;;;;15.88;70.63;100653.91;12207374;19;20492;-79
2022/07/10 06:40:01;;;;;;;2.97;0.98;;;;;;;15.90;71.43;100650.84;12210698;19;20030;-79
2022/07/10 06:44:03;;;;;;;5.43;1.20;;;;;;;16.03;71.81;100655.97;12178418;19;20026;-80
2022/07/10 06:48:05;;;;;;;2.95;0.85;;;;;;;16.38;69.08;100646.19;12216766;19;20006;-79
2022/07/10 06:52:07;;;;;;;6.80;1.30;;;;;;;16.79;67.48;100638.97;12208677;19;20011;-80
2022/07/10 06:56:14;;;;;;;5.20;1.10;;;;;;;17.05;65.22;100637.13;12184640;19;20014;-79
2022/07/10 07:00:16;;;;;;;2.20;0.82;;;;;;;17.04;64.20;100637.38;12207932;19;20003;-80
2022/07/10 07:04:18;;;;;;;3.08;0.70;;;;;;;16.94;62.65;100637.34;12195768;19;20010;-79
2022/07/10 07:08:20;;;;;;;1.92;0.70;;;;;;;16.80;62.86;100648.97;12181720;19;20547;-80
2022/07/10 07:12:22;;;;;;;3.15;0.70;;;;;;;16.71;62.24;100656.13;12184062;19;20022;-79
2022/07/10 07:16:37;;;;;;;2.03;0.67;;;;;;;16.78;61.54;100651.22;12210799;19;20007;-79
2022/07/10 07:24:59;;;;;;;4.82;0.82;;;;;;;17.10;59.76;100641.84;12217005;19;20015;-80
2022/07/10 07:29:01;;;;;;;4.28;0.85;;;;;;;17.37;56.08;100644.47;12187956;19;20014;-80
2022/07/10 07:33:02;;;;;;;3.72;1.00;;;;;;;17.74;55.20;100633.09;12212543;19;20026;-80
2022/07/10 07:37:04;;;;;;;4.85;0.82;;;;;;;17.80;55.50;100656.28;12200258;19;20106;-80
2022/07/10 07:41:06;;;;;;;5.50;0.93;;;;;;;17.91;55.61;100657.97;12191136;19;20082;-80
2022/07/10 07:45:09;;;;;;;3.35;0.88;;;;;;;17.98;54.80;100649.31;12208722;19;20019;-81
2022/07/10 07:49:10;;;;;;;5.47;0.90;;;;;;;18.16;55.85;100643.16;12203141;19;20014;-81
2022/07/10 07:53:12;;;;;;;2.70;1.23;;;;;;;18.47;55.47;100645.91;12184976;19;20018;-81
2022/07/10 07:57:14;;;;;;;3.80;0.60;;;;;;;18.63;53.58;100641.13;12199047;19;20010;-81
2022/07/10 08:01:16;;;;;;;4.93;0.90;;;;;;;18.95;51.79;100640.78;12206818;19;20010;-80
2022/07/10 08:05:18;;;;;;;4.03;0.77;;;;;;;18.89;48.46;100639.97;12183876;19;20086;-81
2022/07/10 08:09:20;;;;;;;4.43;0.75;;;;;;;19.10;49.22;100634.28;12205104;19;20023;-81
2022/07/10 08:13:22;;;;;;;3.85;0.68;;;;;;;19.54;48.40;100634.31;12209563;19;20007;-81
2022/07/10 08:17:25;;;;;;;1.35;0.70;;;;;;;19.61;45.73;100638.75;12180329;19;20629;-80
2022/07/10 08:21:27;;;;;;;4.20;0.57;;;;;;;19.55;46.91;100619.19;12204901;19;20448;-81
2022/07/10 08:25:32;;;;;;;2.60;0.60;;;;;;;19.35;46.07;100624.91;12211305;19;20018;-81
2022/07/10 08:29:34;;;;;;;2.17;0.60;;;;;;;19.47;45.39;100616.19;12183990;19;20006;-82
2022/07/10 08:33:36;;;;;;;2.05;0.70;;;;;;;19.80;44.70;100622.97;12192802;19;20072;-82
2022/07/10 08:37:38;;;;;;;7.88;0.70;;;;;;;19.62;43.83;100623.63;12182656;19;20356;-82
2022/07/10 08:41:42;;;;;;;1.23;0.65;;;;;;;19.74;43.13;100624.97;12210220;19;20002;-81
2022/07/10 08:45:45;;;;;;;3.05;0.70;;;;;;;20.42;42.97;100610.06;12227874;19;20007;-80
2022/07/10 08:49:47;;;;;;;3.35;0.63;;;;;;;21.06;42.10;100618.31;12211181;19;20043;-80
2022/07/10 08:53:51;;;;;;;1.80;0.85;;;;;;;21.06;40.91;100621.97;12194617;19;20006;-82
2022/07/10 08:57:55;;;;;;;2.88;0.70;;;;;;;20.60;41.53;100624.47;12204121;19;20023;-81
2022/07/10 09:01:57;;;;;;;3.90;0.80;;;;;;;20.82;41.70;100622.00;12179491;19;20015;-81
2022/07/10 09:05:59;;;;;;;2.70;0.60;;;;;;;21.14;41.22;100626.06;12203243;19;20023;-81
2022/07/10 09:10:06;;;;;;;2.53;0.70;;;;;;;21.48;40.77;100627.88;12214413;19;20023;-81
2022/07/10 09:14:14;;;;;;;4.45;0.73;;;;;;;21.65;39.38;100624.50;12185350;19;20002;-82
2022/07/10 09:18:35;;;;;;;3.55;0.60;;;;;;;21.74;38.33;100629.13;12206657;19;20031;-84
2022/07/10 09:22:38;;;;;;;5.78;0.82;;;;;;;21.39;39.60;100627.72;12175446;19;20026;-82
2022/07/10 09:26:42;;;;;;;2.17;0.70;;;;;;;21.03;40.34;100625.38;12205902;19;20091;-84
2022/07/10 09:30:44;;;;;;;1.45;0.60;;;;;;;21.49;39.76;100618.31;12199424;19;20440;-83
2022/07/10 09:34:48;;;;;;;2.15;0.60;;;;;;;22.15;39.30;100617.22;12183459;19;20024;-83
2022/07/10 09:38:51;;;;;;;4.80;0.70;;;;;;;22.17;38.19;100631.81;12210367;19;20033;-82
2022/07/10 09:42:53;;;;;;;3.25;0.85;;;;;;;22.03;38.11;100634.53;12196258;19;20003;-81
2022/07/10 09:46:55;;;;;;;3.40;0.90;;;;;;;21.93;38.48;100631.09;12175462;19;21506;-81
2022/07/10 09:50:57;;;;;;;2.45;0.70;;;;;;;22.03;38.45;100631.72;12196373;19;20030;-82
2022/07/10 09:55:02;;;;;;;3.13;0.73;;;;;;;21.85;38.82;100627.00;12199246;19;20014;-81
2022/07/10 09:59:08;;;;;;;3.13;0.73;;;;;;;21.52;39.03;100618.53;12172829;19;20010;-82
2022/07/10 10:03:13;;;;;;;2.65;0.68;;;;;;;21.23;40.03;100617.81;12193633;19;20007;-81
2022/07/10 10:07:19;;;;;;;4.13;1.10;;;;;;;21.30;39.87;100621.91;12197471;19;20010;-81
2022/07/10 10:11:23;;;;;;;4.80;1.15;;;;;;;21.23;40.28;100620.59;12184078;19;20023;-82
2022/07/10 10:15:26;;;;;;;2.45;1.05;;;;;;;21.32;39.68;100611.22;12204125;19;20006;-81
2022/07/10 10:23:52;;;;;;;4.82;1.00;;;;;;;21.90;39.45;100614.88;12187969;19;20014;-82
2022/07/10 10:27:55;;;;;;;2.08;0.75;;;;;;;21.96;39.67;100602.41;12209077;19;20003;-82
2022/07/10 10:31:57;;;;;;;2.15;0.80;;;;;;;22.03;38.70;100598.06;12187987;19;20058;-82
2022/07/10 10:36:00;;;;;;;4.30;0.90;;;;;;;22.08;38.95;100597.97;12215154;19;20379;-82
2022/07/10 10:40:04;;;;;;;2.90;0.80;;;;;;;22.62;38.86;100589.97;12215973;19;20066;-82
2022/07/10 10:44:08;;;;;;;2.00;0.70;;;;;;;23.18;37.72;100590.78;12181472;19;20081;-82
2022/07/10 10:48:16;;;;;;;4.43;0.80;;;;;;;23.82;36.67;100585.06;12206549;19;20007;-83
2022/07/10 10:53:02;;;;;;;3.47;1.00;;;;;;;23.27;36.06;100571.19;12179018;19;20056;-83
2022/07/10 10:57:14;;;;;;;4.18;0.90;;;;;;;23.06;36.70;100571.66;12210077;19;20007;-83
2022/07/10 11:01:22;;;;;;;5.78;1.10;;;;;;;22.82;37.56;100574.69;12197058;19;20018;-82
2022/07/10 11:05:33;;;;;;;7.25;1.17;;;;;;;23.61;35.67;100559.38;12192080;19;20090;-83
2022/07/10 11:09:36;;;;;;;5.13;1.20;;;;;;;23.27;36.24;100565.56;12206286;19;20496;-83
2022/07/10 11:13:40;;;;;;;3.95;1.02;;;;;;;22.89;37.80;100566.63;12192632;19;20472;-83
2022/07/10 11:17:42;;;;;;;3.25;1.20;;;;;;;22.82;37.29;100577.47;12202813;19;20098;-82
2022/07/10 11:21:52;;;;;;;;;;;;;;;22.87;37.19;100579.34;12200913;19;20373;-82
2022/07/10 11:26:08;;;;;;;8.85;1.13;;;;;;;22.70;37.24;100572.38;12190542;19;19903;-83
2022/07/10 11:30:10;;;;;;;4.70;1.40;;;;;;;23.03;37.33;100565.84;12206609;19;20031;-83
2022/07/10 11:34:12;;;;;;;4.22;1.20;;;;;;;23.32;36.65;100563.47;12213905;19;20554;-83
2022/07/10 11:38:21;;;;;;;5.22;1.30;;;;;;;23.40;37.06;100564.69;12196935;19;20022;-83
2022/07/10 11:42:26;;;;;;;5.45;1.15;;;;;;;23.86;36.64;100572.03;12205441;19;20015;-84
2022/07/10 11:46:34;;;;;;;3.25;1.00;;;;;;;23.85;36.30;100562.72;12208893;19;20011;-83
2022/07/10 11:50:38;;;;;;;6.53;1.35;;;;;;;23.98;35.97;100554.56;12178339;19;20575;-84
2022/07/10 11:54:42;;;;;;;2.47;1.00;;;;;;;23.96;35.47;100556.84;12210159;19;20010;-81
2022/07/10 11:58:53;;;;;;;5.78;1.35;;;;;;;23.46;36.01;100546.53;12180843;19;20019;-84
2022/07/10 12:02:58;;;;;;;4.03;1.15;;;;;;;23.67;36.96;100539.25;12200628;19;19998;-84
2022/07/10 12:07:00;;;;;;;5.82;2.03;;;;;;;24.34;35.60;100534.69;12204942;19;20023;-85
2022/07/10 12:11:11;;;;;;;5.25;1.10;;;;;;;25.27;35.10;100530.00;12186833;19;20003;-84
2022/07/10 12:15:30;;;;;;;2.65;1.00;;;;;;;25.23;33.68;100539.13;12196316;19;20010;-84
2022/07/10 12:19:46;;;;;;;4.32;1.75;;;;;;;24.41;34.36;100535.06;12205826;19;20011;-84
2022/07/10 12:23:49;;;;;;;3.07;1.13;;;;;;;23.90;35.68;100533.63;12214458;19;20009;-85
2022/07/10 12:27:58;;;;;;;4.53;1.23;;;;;;;23.26;36.71;100532.97;12212339;19;20006;-86
2022/07/10 12:32:01;;;;;;;2.03;0.90;;;;;;;22.86;36.91;100538.34;12189486;19;20015;-84
2022/07/10 12:36:04;;;;;;;5.32;1.08;;;;;;;22.38;37.50;100535.97;12212585;19;20507;-84
2022/07/10 12:40:11;;;;;;;4.17;1.20;;;;;;;22.08;38.17;100541.00;12223610;19;20480;-84
2022/07/10 12:44:29;;;;;;;3.70;1.17;;;;;;;22.06;38.63;100534.88;12199041;19;20796;-84
2022/07/10 12:48:31;;;;;;;4.20;1.10;;;;;;;22.17;38.59;100542.00;12216072;19;20007;-85
2022/07/10 12:52:38;;;;;;;4.97;1.20;;;;;;;22.44;38.48;100535.56;12174606;19;20010;-84
2022/07/10 12:56:40;;;;;;;4.43;1.05;;;;;;;22.66;38.06;100536.78;12214977;19;20006;-84
2022/07/10 13:00:50;;;;;;;2.92;1.05;;;;;;;22.49;38.18;100529.84;12204200;19;20070;-85
2022/07/10 13:04:53;;;;;;;2.97;0.90;;;;;;;22.64;38.00;100523.09;12187458;19;20075;-84
2022/07/10 13:08:55;;;;;;;5.32;1.10;;;;;;;22.89;38.51;100523.66;12214573;19;20006;-85
2022/07/10 13:12:57;;;;;;;4.38;1.27;;;;;;;22.94;38.52;100529.19;12207420;19;20835;-85
2022/07/10 13:16:59;;;;;;;3.15;1.08;;;;;;;22.82;38.44;100517.66;12184338;19;20084;-84
2022/07/10 13:21:02;;;;;;;4.55;1.00;;;;;;;23.08;38.16;100518.78;12207726;19;20073;-84
2022/07/10 13:25:04;;;;;;;5.30;1.67;;;;;;;23.55;38.07;100512.84;12204897;19;20015;-85
2022/07/10 13:29:07;;;;;;;3.15;1.08;;;;;;;23.84;37.03;100512.41;12174363;19;20517;-84
2022/07/10 13:33:09;;;;;;;5.63;1.23;;;;;;;24.05;36.47;100518.31;12203450;19;20343;-85
2022/07/10 13:37:13;;;;;;;4.53;1.17;;;;;;;24.06;36.36;100523.66;12201955;19;20011;-83
2022/07/10 13:41:15;;;;;;;5.00;1.00;;;;;;;23.88;36.43;100508.66;12184491;19;20010;-84
2022/07/10 13:45:17;;;;;;;6.68;3.55;;;;;;;23.80;37.03;100508.59;12198145;19;20025;-84
2022/07/10 13:49:19;;;;;;;2.47;1.00;;;;;;;23.62;37.16;100502.81;12211362;19;20337;-84
2022/07/10 13:53:26;;;;;;;3.53;0.80;;;;;;;23.50;37.40;100512.97;12190587;19;20027;-85
2022/07/10 13:57:34;;;;;;;2.90;0.70;;;;;;;23.17;37.35;100510.38;12207446;19;20780;-85
2022/07/10 14:01:36;;;;;;;4.47;0.88;;;;;;;22.97;37.58;100506.09;12192898;19;20071;-84
2022/07/10 14:05:37;;;;;;;2.73;0.97;;;;;;;23.05;37.83;100501.69;12221810;19;20010;-84
2022/07/10 14:09:41;;;;;;;3.25;1.17;;;;;;;23.11;37.91;100501.28;12221673;19;20034;-83
2022/07/10 14:13:42;;;;;;;3.10;1.02;;;;;;;23.52;37.73;100486.19;12197480;19;20011;-84
2022/07/10 14:17:44;;;;;;;4.23;1.50;;;;;;;24.37;36.28;100499.44;12207596;19;20329;-84
2022/07/10 14:21:47;;;;;;;4.63;1.33;;;;;;;24.41;36.17;100504.06;12204729;19;20006;-85
2022/07/10 14:25:50;;;;;;;2.65;1.13;;;;;;;24.21;36.47;100513.09;12195983;19;20495;-84
2022/07/10 14:29:53;;;;;;;1.60;0.77;;;;;;;23.81;36.35;100505.44;12219200;19;20007;-83
2022/07/10 14:33:56;;;;;;;2.67;0.65;;;;;;;23.45;37.00;100510.31;12207193;19;20006;-84
2022/07/10 14:38:03;;;;;;;3.58;0.90;;;;;;;23.21;37.59;100514.25;12198304;19;20033;-84
2022/07/10 14:42:04;;;;;;;4.45;2.00;;;;;;;23.03;37.97;100502.00;12205811;19;20018;-84
2022/07/10 14:46:09;;;;;;;3.07;1.20;;;;;;;23.18;37.94;100512.91;12219057;19;20016;-84
2022/07/10 14:50:10;;;;;;;4.30;2.38;;;;;;;23.26;37.44;100510.47;12199942;19;20020;-83
2022/07/10 14:54:13;;;;;;;3.03;0.80;;;;;;;23.15;37.97;100521.97;12208400;19;20485;-84
2022/07/10 14:58:15;;;;;;;;;;;;;;;23.09;37.93;100506.38;12218705;19;20011;-85
2022/07/10 15:02:19;;;;;;;2.25;0.93;;;;;;;22.71;38.11;100508.59;12188974;19;19944;-82
2022/07/10 15:06:21;;;;;;;2.47;0.60;;;;;;;22.39;38.52;100512.38;12212444;19;20464;-83
2022/07/10 15:10:23;;;;;;;4.80;1.08;;;;;;;22.17;38.84;100505.50;12210936;19;20126;-83
2022/07/10 15:14:27;;;;;;;1.93;0.67;;;;;;;22.04;39.86;100517.50;12187255;19;20006;-83
2022/07/10 15:18:28;;;;;;;2.45;0.77;;;;;;;22.06;39.64;100507.63;12202466;19;20027;-83
2022/07/10 15:22:32;;;;;;;4.70;0.70;;;;;;;21.96;40.19;100513.44;12205237;19;20482;-82
2022/07/10 15:26:34;;;;;;;1.65;0.70;;;;;;;21.97;40.63;100519.88;12188788;19;20839;-81
2022/07/10 15:30:38;;;;;;;3.25;0.55;;;;;;;21.82;41.47;100519.03;12198640;19;20015;-83
2022/07/10 15:34:40;;;;;;;2.45;1.05;;;;;;;21.87;41.73;100508.88;12189431;19;20814;-83
2022/07/10 15:38:42;;;;;;;1.60;0.70;;;;;;;21.90;42.37;100511.06;12207486;19;20010;-82
2022/07/10 15:42:43;;;;;;;2.50;0.90;;;;;;;21.93;42.45;100513.25;12199871;19;20027;-84
2022/07/10 15:46:45;;;;;;;2.05;0.65;;;;;;;21.94;42.69;100510.09;12184315;19;20014;-83
2022/07/10 15:51:31;;;;;;;0.83;0.60;;;;;;;22.00;43.93;100510.84;12178258;19;20010;-84
2022/07/10 16:17:49;;;;;;;0.85;0.55;;;;;;;22.33;43.49;100502.38;12206496;19;20009;-83
2022/07/10 16:27:37;;;;;;;1.07;0.50;;;;;;;21.82;43.92;100505.00;12210640;19;20017;-82
2022/07/10 16:31:41;;;;;;;1.23;0.60;;;;;;;21.70;44.18;100499.03;12178318;19;20053;-82
2022/07/10 16:35:42;;;;;;;1.05;0.65;;;;;;;21.54;45.10;100503.28;12206612;19;20014;-81
2022/07/10 16:39:44;;;;;;;2.67;0.68;;;;;;;21.49;45.00;100500.53;12211542;19;20074;-82
2022/07/10 16:43:46;;;;;;;2.60;0.70;;;;;;;21.33;45.64;100499.94;12176970;19;20014;-80
2022/07/10 16:47:47;;;;;;;0.50;0.50;;;;;;;21.31;46.25;100489.03;12213853;19;20035;-82
2022/07/10 16:51:49;;;;;;;1.15;0.80;;;;;;;21.38;46.62;100488.66;12208520;19;20503;-82
2022/07/10 16:55:52;;;;;;;1.42;0.70;;;;;;;21.40;46.69;100483.59;12184088;19;20014;-82
2022/07/10 16:59:54;;;;;;;3.47;1.00;;;;;;;21.29;47.40;100488.47;12204498;19;20013;-81
2022/07/10 17:03:56;;;;;;;0.93;0.77;;;;;;;21.28;46.83;100484.03;12198423;19;20452;-80
2022/07/10 17:07:58;;;;;;;1.63;0.75;;;;;;;21.23;47.10;100481.28;12187891;19;20014;-79
2022/07/10 17:11:59;;;;;;;2.17;1.17;;;;;;;21.19;47.34;100480.25;12212523;19;20054;-80
2022/07/10 17:16:01;;;;;;;1.08;0.73;;;;;;;21.26;47.33;100483.50;12202790;19;20002;-80
2022/07/10 17:20:04;;;;;;;2.42;0.82;;;;;;;21.25;47.86;100487.44;12178402;19;20656;-79
2022/07/10 17:24:06;;;;;;;1.75;0.90;;;;;;;21.22;47.34;100485.25;12210808;19;20273;-80
2022/07/10 17:28:07;;;;;;;2.15;1.00;;;;;;;21.16;48.12;100483.66;12211122;19;20002;-81
2022/07/10 17:32:09;;;;;;;2.20;1.42;;;;;;;;;;12190762;19;20024;-81
2022/07/10 17:36:11;;;;;;;4.22;1.80;;;;;;;21.07;48.44;100485.50;12216587;19;20086;-82
2022/07/10 17:40:12;;;;;;;4.22;1.85;;;;;;;21.10;49.14;100491.31;12209354;19;20010;-81
2022/07/10 17:44:14;;;;;;;2.60;1.30;;;;;;;21.06;49.53;100489.41;12184318;19;20463;-81
2022/07/10 17:48:16;;;;;;;2.75;1.80;;;;;;;21.06;50.08;100495.00;12210424;19;20049;-82
2022/07/10 17:52:18;;;;;;;3.47;1.90;;;;;;;20.99;49.87;100487.00;12217245;19;20102;-81
2022/07/10 17:56:21;;;;;;;2.60;1.90;;;;;;;21.02;50.06;100493.97;12197707;19;20122;-81
2022/07/10 18:00:23;;;;;;;5.40;1.83;;;;;;;20.94;50.32;100489.91;12210000;19;20010;-80
2022/07/10 18:04:25;;;;;;;3.75;1.80;;;;;;;20.88;51.13;100489.13;12217455;19;20031;-80
2022/07/10 18:08:27;;;;;;;3.15;2.00;;;;;;;20.84;50.65;100493.66;12197467;19;20070;-82
2022/07/10 18:12:28;;;;;;;2.78;1.73;;;;;;;20.77;50.88;100492.38;12222571;19;20015;-82
2022/07/10 18:16:30;;;;;;;3.03;1.95;;;;;;;20.57;51.82;100493.47;12219684;19;20015;-82
2022/07/10 18:20:34;;;;;;;2.90;2.07;;;;;;;20.47;52.28;100489.66;12190553;19;20021;-81
2022/07/10 18:24:36;;;;;;;3.20;2.22;;;;;;;20.43;52.26;100493.34;12220450;19;20511;-82
2022/07/10 18:28:39;;;;;;;3.13;2.17;;;;;;;20.31;52.71;100495.72;12187560;19;20337;-82
2022/07/10 18:37:04;;;;;;;3.33;2.20;;;;;;;20.10;53.35;100497.94;12216123;19;20003;-82
2022/07/10 18:41:06;;;;;;;3.83;2.40;;;;;;;19.92;54.83;100494.75;12187714;19;20583;-81
2022/07/10 18:45:08;;;;;;;3.43;2.60;;;;;;;19.78;55.48;100490.97;12213640;19;20010;-82
2022/07/10 18:49:10;;;;;;;3.27;2.60;;;;;;;19.79;55.15;100501.06;12202489;19;20348;-81
2022/07/10 18:53:12;;;;;;;4.00;2.67;;;;;;;19.72;55.54;100497.75;12187091;19;20018;-81
2022/07/10 18:57:13;;;;;;;5.53;3.13;;;;;;;19.61;56.81;100507.34;12211616;19;20010;-80
2022/07/10 19:01:18;;;;;;;5.68;2.65;;;;;;;19.52;57.03;100507.97;12212357;19;20062;-81
2022/07/10 19:05:20;;;;;;;;;;;;;;;19.35;57.97;100502.78;12189159;19;20014;-81
2022/07/10 19:09:21;;;;;;;3.50;2.00;;;;;;;19.30;58.01;100516.81;12216255;19;20006;-81
2022/07/10 19:13:23;;;;;;;4.25;2.53;;;;;;;19.19;58.44;100517.19;12202362;19;20116;-81
2022/07/10 19:17:27;;;;;;;5.13;2.63;;;;;;;19.08;59.27;100511.66;12193452;19;20014;-80